Time;durP1;ratioP1;P1;durP2;ratioP2;P2;SDS_P1;SDS_P2;PMS_P1;PMS_P2;Temp;Humidity;BMP_temperature;BMP_pressure;BME280_temperature;BME280_humidity;BME280_pressure;Samples;Min_cycle;Max_cycle;Signal;HPM_P1;HPM_P2
2022/03/23 00:01:06;;;;;;;65.25;41.50;;;8.50;99.90;;;;;;5094588;28;20031;-82
2022/03/23 00:03:32;;;;;;;72.78;42.22;;;8.40;99.90;;;;;;5101103;28;20047;-82
2022/03/23 00:05:59;;;;;;;73.38;40.35;;;8.80;99.90;;;;;;5102857;28;20036;-82
2022/03/23 00:08:24;;;;;;;71.88;42.92;;;8.30;99.90;;;;;;5105053;28;20051;-82
2022/03/23 00:10:50;;;;;;;66.30;41.28;;;8.30;99.90;;;;;;5101021;28;20032;-82
2022/03/23 00:13:16;;;;;;;61.53;38.53;;;8.20;99.90;;;;;;5089031;28;20037;-82
2022/03/23 00:15:42;;;;;;;65.93;41.65;;;8.20;99.90;;;;;;5107454;28;20107;-82
2022/03/23 00:18:08;;;;;;;69.30;42.42;;;8.20;99.90;;;;;;5110596;28;20067;-83
2022/03/23 00:20:34;;;;;;;69.07;42.30;;;8.10;99.90;;;;;;5103452;28;20118;-83
2022/03/23 00:23:00;;;;;;;73.63;40.25;;;8.10;99.90;;;;;;5097126;28;20040;-82
2022/03/23 00:25:26;;;;;;;64.30;39.88;;;8.10;99.90;;;;;;5098334;28;20048;-82
2022/03/23 00:27:52;;;;;;;69.53;40.17;;;8.00;99.90;;;;;;5093554;28;20395;-83
2022/03/23 00:30:18;;;;;;;67.32;41.13;;;8.00;99.90;;;;;;5094113;28;20048;-82
2022/03/23 00:32:43;;;;;;;64.72;40.25;;;8.00;99.90;;;;;;5093238;28;20379;-83
2022/03/23 00:35:09;;;;;;;68.47;40.65;;;8.40;99.90;;;;;;5084748;28;20040;-81
2022/03/23 00:37:35;;;;;;;72.18;41.13;;;7.80;99.90;;;;;;5093405;28;20164;-83
2022/03/23 00:40:01;;;;;;;67.75;39.88;;;7.80;99.90;;;;;;5093277;28;20062;-84
2022/03/23 00:42:27;;;;;;;66.45;37.95;;;7.80;99.90;;;;;;5092964;28;20391;-84
2022/03/23 00:44:53;;;;;;;67.13;41.72;;;7.70;99.90;;;;;;5095790;28;20429;-84
2022/03/23 00:47:18;;;;;;;66.55;40.80;;;7.70;99.90;;;;;;5092276;28;20043;-83
2022/03/23 00:49:45;;;;;;;68.93;42.75;;;7.70;99.90;;;;;;5100867;28;20078;-84
2022/03/23 00:52:11;;;;;;;66.40;37.72;;;7.70;99.90;;;;;;5092130;28;20052;-83
2022/03/23 00:54:37;;;;;;;64.65;40.17;;;7.60;99.90;;;;;;5089501;28;20039;-83
2022/03/23 00:57:07;;;;;;;70.40;42.67;;;7.60;99.90;;;;;;5080424;28;20040;-84
2022/03/23 00:59:34;;;;;;;67.15;41.70;;;7.60;99.90;;;;;;5093700;28;20390;-83
2022/03/23 01:02:00;;;;;;;71.35;42.15;;;7.50;99.90;;;;;;5101768;28;20117;-82
2022/03/23 01:04:26;;;;;;;75.90;43.55;;;7.50;99.90;;;;;;5088935;28;20071;-83
2022/03/23 01:06:52;;;;;;;71.30;42.60;;;7.40;99.90;;;;;;5075660;28;20040;-83
2022/03/23 01:09:23;;;;;;;72.35;44.15;;;7.40;99.90;;;;;;5087893;28;20389;-83
2022/03/23 01:11:53;;;;;;;68.40;40.38;;;7.40;99.90;;;;;;5086087;28;20050;-83
2022/03/23 01:14:20;;;;;;;66.72;40.20;;;7.40;99.90;;;;;;5094373;28;20032;-83
2022/03/23 01:16:47;;;;;;;59.00;38.25;;;7.30;99.90;;;;;;5088578;28;20108;-83
2022/03/23 01:19:13;;;;;;;65.45;39.53;;;7.30;99.90;;;;;;5086048;28;20036;-83
2022/03/23 01:21:40;;;;;;;69.80;39.40;;;7.30;99.90;;;;;;5098826;28;20081;-82
2022/03/23 01:24:06;;;;;;;68.85;41.90;;;7.20;99.90;;;;;;5103519;28;20109;-83
2022/03/23 01:26:32;;;;;;;71.47;42.67;;;7.50;99.90;;;;;;5095001;28;20048;-84
2022/03/23 01:28:58;;;;;;;67.82;41.72;;;7.20;99.90;;;;;;5095127;28;20044;-83
2022/03/23 01:31:24;;;;;;;72.13;42.78;;;7.20;99.90;;;;;;5096888;28;20234;-83
2022/03/23 01:33:50;;;;;;;80.53;44.33;;;7.20;99.90;;;;;;5095508;28;20105;-83
2022/03/23 01:36:15;;;;;;;71.60;42.47;;;7.60;99.90;;;;;;5093644;28;20044;-83
2022/03/23 01:38:41;;;;;;;71.45;40.20;;;7.20;99.90;;;;;;5097392;28;20051;-83
2022/03/23 01:41:06;;;;;;;73.88;42.35;;;7.20;99.90;;;;;;5094775;28;20399;-82
2022/03/23 01:43:33;;;;;;;67.70;42.05;;;7.10;99.90;;;;;;5086376;28;20040;-83
2022/03/23 01:46:00;;;;;;;78.53;44.53;;;7.10;99.90;;;;;;5092597;28;20050;-83
2022/03/23 01:48:26;;;;;;;70.03;42.30;;;7.10;99.90;;;;;;5096626;28;20036;-83
2022/03/23 01:50:51;;;;;;;71.40;42.80;;;7.00;99.90;;;;;;5095678;28;20051;-83
2022/03/23 01:53:17;;;;;;;72.63;43.42;;;7.00;99.90;;;;;;5101187;28;20043;-83
2022/03/23 01:55:44;;;;;;;72.70;41.40;;;6.90;99.90;;;;;;5098177;28;20032;-83
2022/03/23 01:58:10;;;;;;;67.97;42.28;;;6.90;99.90;;;;;;5096280;28;20043;-83
2022/03/23 02:00:36;;;;;;;72.35;44.67;;;6.80;99.90;;;;;;5091334;28;20111;-83
2022/03/23 02:03:03;;;;;;;74.47;44.85;;;6.80;99.90;;;;;;5096235;28;20109;-83
2022/03/23 02:05:28;;;;;;;71.63;42.65;;;6.80;99.90;;;;;;5096006;28;20044;-82
2022/03/23 02:07:57;;;;;;;73.35;40.72;;;6.80;99.90;;;;;;5093403;28;20047;-82
2022/03/23 02:10:23;;;;;;;74.65;44.97;;;6.80;99.90;;;;;;5095752;28;20055;-84
2022/03/23 02:12:48;;;;;;;73.22;42.72;;;6.70;99.90;;;;;;5077976;28;20127;-84
2022/03/23 02:15:17;;;;;;;72.60;44.30;;;6.70;99.90;;;;;;5096091;28;20116;-83
2022/03/23 02:17:44;;;;;;;80.00;45.85;;;6.70;99.90;;;;;;5115260;28;20036;-83
2022/03/23 02:20:11;;;;;;;66.40;41.75;;;6.60;99.90;;;;;;5117576;28;20056;-80
2022/03/23 02:22:38;;;;;;;77.57;46.90;;;6.70;99.90;;;;;;5115125;28;20146;-83
2022/03/23 02:25:06;;;;;;;71.10;44.65;;;6.60;99.90;;;;;;5116973;28;20084;-83
2022/03/23 02:27:34;;;;;;;73.60;44.78;;;6.60;99.90;;;;;;5102840;28;20062;-83
2022/03/23 02:30:00;;;;;;;73.68;42.42;;;6.60;99.90;;;;;;5094725;28;20041;-83
2022/03/23 02:32:25;;;;;;;73.57;43.80;;;6.50;99.90;;;;;;5100448;28;20036;-84
2022/03/23 02:34:51;;;;;;;80.25;45.13;;;6.50;99.90;;;;;;5096959;28;20088;-83
2022/03/23 02:37:17;;;;;;;71.63;45.20;;;6.50;99.90;;;;;;5104709;28;20036;-83
2022/03/23 02:39:42;;;;;;;77.03;46.00;;;6.50;99.90;;;;;;5103817;28;20565;-83
2022/03/23 02:42:08;;;;;;;74.88;44.03;;;6.40;99.90;;;;;;5098069;28;20111;-84
2022/03/23 02:44:34;;;;;;;76.38;44.53;;;6.40;99.90;;;;;;5099125;28;20068;-83
2022/03/23 02:47:01;;;;;;;73.40;43.95;;;6.40;99.90;;;;;;5094574;28;20039;-83
2022/03/23 02:49:27;;;;;;;78.53;45.08;;;6.40;99.90;;;;;;5094523;28;20104;-83
2022/03/23 02:51:52;;;;;;;71.38;42.70;;;6.30;99.90;;;;;;5093464;28;20032;-83
2022/03/23 03:02:59;;;;;;;;;;;6.20;99.90;;;;;;5092613;28;20044;-82
2022/03/23 03:05:25;;;;;;;84.18;46.88;;;6.20;99.90;;;;;;5091198;28;19924;-83
2022/03/23 03:10:35;;;;;;;79.60;44.65;;;6.10;99.90;;;;;;5090096;28;20060;-82
2022/03/23 03:13:01;;;;;;;85.47;48.35;;;6.10;99.90;;;;;;5092633;28;20054;-82
2022/03/23 03:15:27;;;;;;;75.72;44.72;;;6.10;99.90;;;;;;5093148;28;20125;-82
2022/03/23 03:17:57;;;;;;;76.25;43.60;;;6.10;99.90;;;;;;5097675;28;20491;-82
2022/03/23 03:20:23;;;;;;;82.90;48.05;;;6.00;99.90;;;;;;5105359;28;20040;-82
2022/03/23 03:22:49;;;;;;;85.68;49.10;;;6.00;99.90;;;;;;5101619;28;20062;-82
2022/03/23 03:25:16;;;;;;;77.35;46.60;;;6.00;99.90;;;;;;5103576;28;20063;-83
2022/03/23 03:27:43;;;;;;;88.55;48.92;;;6.00;99.90;;;;;;5106880;28;20027;-82
2022/03/23 03:30:11;;;;;;;89.68;46.97;;;5.90;99.90;;;;;;5099010;28;20551;-82
2022/03/23 03:32:37;;;;;;;85.25;46.97;;;5.90;99.90;;;;;;5103293;28;20040;-83
2022/03/23 03:35:04;;;;;;;77.25;47.25;;;5.90;99.90;;;;;;5092073;28;20394;-83
2022/03/23 03:37:31;;;;;;;82.22;49.05;;;5.90;99.90;;;;;;5092343;28;20059;-83
2022/03/23 03:39:56;;;;;;;79.75;45.42;;;5.90;99.90;;;;;;5088919;28;20078;-83
2022/03/23 03:42:22;;;;;;;82.45;47.90;;;5.80;99.90;;;;;;5093861;28;20093;-83
2022/03/23 03:44:50;;;;;;;81.20;47.80;;;5.80;99.90;;;;;;5094206;28;20036;-82
2022/03/23 03:47:18;;;;;;;72.63;44.15;;;5.80;99.90;;;;;;5092488;28;20186;-83
2022/03/23 03:49:44;;;;;;;83.97;50.92;;;5.80;99.90;;;;;;5096516;28;20076;-83
2022/03/23 03:52:10;;;;;;;91.30;50.50;;;5.80;99.90;;;;;;5095905;28;20043;-83
2022/03/23 03:54:37;;;;;;;86.30;47.00;;;5.70;99.90;;;;;;5094646;28;20567;-83
2022/03/23 03:57:03;;;;;;;83.13;49.50;;;5.70;99.90;;;;;;5092438;28;20486;-83
2022/03/23 03:59:28;;;;;;;79.45;44.90;;;5.70;99.90;;;;;;5081401;28;20047;-83
2022/03/23 04:01:54;;;;;;;87.38;47.75;;;5.80;99.90;;;;;;5089170;28;20046;-83
2022/03/23 04:04:20;;;;;;;84.70;50.22;;;5.70;99.90;;;;;;5092131;28;20050;-84
2022/03/23 04:06:46;;;;;;;85.25;51.17;;;5.70;99.90;;;;;;5091117;28;20036;-83
2022/03/23 04:09:11;;;;;;;87.78;51.60;;;5.70;99.90;;;;;;5096470;28;20032;-83
2022/03/23 04:11:38;;;;;;;85.20;51.05;;;5.60;99.90;;;;;;5094203;28;20040;-83
2022/03/23 04:14:04;;;;;;;86.75;48.78;;;5.60;99.90;;;;;;5093453;28;20036;-82
2022/03/23 04:16:29;;;;;;;86.75;49.17;;;5.60;99.90;;;;;;5085787;28;20050;-82
2022/03/23 04:18:55;;;;;;;81.88;48.97;;;5.60;99.90;;;;;;5080973;28;20040;-83
2022/03/23 04:21:21;;;;;;;91.35;50.95;;;5.60;99.90;;;;;;5098002;28;20042;-83
2022/03/23 04:23:46;;;;;;;87.95;47.70;;;5.60;99.90;;;;;;5097337;28;20398;-84
2022/03/23 04:26:12;;;;;;;90.32;52.33;;;5.60;99.90;;;;;;5099914;28;20455;-83
2022/03/23 04:28:38;;;;;;;77.60;46.47;;;5.60;99.90;;;;;;5087445;28;20523;-82
2022/03/23 04:31:04;;;;;;;93.72;52.88;;;5.50;99.90;;;;;;5089999;28;20032;-83
2022/03/23 04:33:30;;;;;;;85.65;49.42;;;5.50;99.90;;;;;;5087510;28;20047;-83
2022/03/23 04:35:55;;;;;;;80.45;47.40;;;5.50;99.90;;;;;;5093295;28;20044;-83
2022/03/23 04:38:21;;;;;;;90.30;53.65;;;5.40;99.90;;;;;;5092995;28;20048;-83
2022/03/23 04:40:46;;;;;;;96.55;54.60;;;5.40;99.90;;;;;;5092838;28;20491;-85
2022/03/23 04:43:13;;;;;;;81.13;47.17;;;5.40;99.90;;;;;;5098607;28;20040;-84
2022/03/23 04:45:40;;;;;;;89.03;48.47;;;5.40;99.90;;;;;;5093554;28;20552;-85
2022/03/23 04:48:06;;;;;;;95.60;52.30;;;5.40;99.90;;;;;;5093189;28;20055;-85
2022/03/23 04:50:32;;;;;;;89.70;53.25;;;5.30;99.90;;;;;;5093466;28;20036;-85
2022/03/23 04:52:58;;;;;;;92.60;52.15;;;5.30;99.90;;;;;;5092055;28;20040;-85
2022/03/23 04:55:24;;;;;;;89.90;52.88;;;5.30;99.90;;;;;;5100404;28;20040;-84
2022/03/23 04:57:50;;;;;;;98.90;55.15;;;5.30;99.90;;;;;;5099098;28;20448;-85
2022/03/23 05:00:17;;;;;;;97.90;54.45;;;5.30;99.90;;;;;;5096548;28;20044;-85
2022/03/23 05:02:48;;;;;;;82.97;48.55;;;5.30;99.90;;;;;;5098506;28;20051;-86
2022/03/23 05:05:15;;;;;;;89.05;51.92;;;5.30;99.90;;;;;;5094039;28;20082;-86
2022/03/23 05:07:42;;;;;;;90.22;52.90;;;5.30;99.90;;;;;;5087776;28;20498;-85
2022/03/23 05:10:09;;;;;;;93.93;53.58;;;5.20;99.90;;;;;;5096923;28;20047;-85
2022/03/23 05:12:39;;;;;;;98.50;53.55;;;5.20;99.90;;;;;;5095688;28;20089;-85
2022/03/23 05:15:06;;;;;;;96.25;56.80;;;5.20;99.90;;;;;;5096591;28;20478;-85
2022/03/23 05:17:33;;;;;;;94.30;54.28;;;5.20;99.90;;;;;;5096391;28;20499;-85
2022/03/23 05:19:59;;;;;;;84.93;52.85;;;5.20;99.90;;;;;;5087857;28;20101;-85
2022/03/23 05:22:25;;;;;;;84.85;50.25;;;5.20;99.90;;;;;;5097561;28;20040;-85
2022/03/23 05:24:51;;;;;;;93.25;50.75;;;5.20;99.90;;;;;;5079949;28;20085;-85
2022/03/23 05:27:16;;;;;;;95.03;53.72;;;5.20;99.90;;;;;;5089068;28;20032;-85
2022/03/23 05:29:43;;;;;;;85.18;48.95;;;5.20;99.90;;;;;;5097034;28;20493;-84
2022/03/23 05:32:16;;;;;;;85.95;52.05;;;5.20;99.90;;;;;;5079434;28;20115;-85
2022/03/23 05:34:43;;;;;;;92.72;52.13;;;5.20;99.90;;;;;;5098272;28;20044;-84
2022/03/23 05:37:09;;;;;;;99.13;54.53;;;5.10;99.90;;;;;;5094749;28;20043;-84
2022/03/23 05:39:34;;;;;;;91.75;51.65;;;5.10;99.90;;;;;;5097748;28;20044;-85
2022/03/23 05:42:00;;;;;;;88.60;51.13;;;5.10;99.90;;;;;;5098476;28;20040;-85
2022/03/23 05:44:25;;;;;;;93.35;53.78;;;5.10;99.90;;;;;;5099529;28;20081;-84
2022/03/23 05:46:51;;;;;;;84.63;48.33;;;5.10;99.90;;;;;;5107934;28;20047;-85
2022/03/23 05:49:17;;;;;;;79.93;48.40;;;5.10;99.90;;;;;;5101432;28;20033;-85
2022/03/23 05:51:42;;;;;;;88.47;51.17;;;5.10;99.90;;;;;;5117463;28;20036;-84
2022/03/23 05:54:08;;;;;;;98.15;55.00;;;5.10;99.90;;;;;;5119703;28;20084;-83
2022/03/23 05:56:33;;;;;;;91.88;53.30;;;5.10;99.90;;;;;;5119212;28;20123;-83
2022/03/23 05:58:59;;;;;;;76.70;45.25;;;5.10;99.90;;;;;;5137073;27;20048;-84
2022/03/23 06:01:25;;;;;;;86.10;49.13;;;5.10;99.90;;;;;;5098208;28;20032;-83
2022/03/23 06:03:50;;;;;;;87.38;49.13;;;5.20;99.90;;;;;;5094828;28;20039;-84
2022/03/23 06:06:17;;;;;;;91.70;51.88;;;5.20;99.90;;;;;;5094030;28;20040;-85
2022/03/23 06:08:43;;;;;;;89.63;51.13;;;5.20;99.90;;;;;;5098660;28;20032;-81
2022/03/23 06:11:08;;;;;;;99.00;53.78;;;5.20;99.90;;;;;;5097920;28;20540;-79
2022/03/23 06:13:34;;;;;;;84.85;49.28;;;5.30;99.90;;;;;;5096090;28;20192;-75
2022/03/23 06:16:00;;;;;;;80.90;49.58;;;5.30;99.90;;;;;;5084940;28;20048;-75
2022/03/23 06:18:25;;;;;;;76.80;46.50;;;5.30;99.90;;;;;;5093820;28;20052;-74
2022/03/23 06:20:51;;;;;;;82.20;48.05;;;5.40;99.90;;;;;;5095203;28;20044;-74
2022/03/23 06:23:17;;;;;;;78.43;47.13;;;5.40;99.90;;;;;;5093129;28;20117;-74
2022/03/23 06:25:43;;;;;;;86.25;47.90;;;5.50;99.90;;;;;;5101194;28;20032;-75
2022/03/23 06:28:08;;;;;;;82.82;48.60;;;5.50;99.90;;;;;;5095455;28;20040;-75
2022/03/23 06:30:34;;;;;;;83.32;48.65;;;5.90;99.90;;;;;;5095154;28;20032;-75
2022/03/23 06:33:00;;;;;;;83.30;49.35;;;5.70;99.90;;;;;;5092302;28;20040;-74
2022/03/23 06:35:27;;;;;;;86.50;50.47;;;5.70;99.90;;;;;;5094277;28;20118;-75
2022/03/23 06:37:52;;;;;;;79.70;47.97;;;5.90;99.90;;;;;;5092268;28;20546;-74
2022/03/23 06:40:19;;;;;;;76.68;45.70;;;6.40;99.90;;;;;;5095154;28;20127;-75
2022/03/23 06:42:45;;;;;;;78.22;47.10;;;6.10;99.90;;;;;;5091079;28;20068;-75
2022/03/23 06:45:10;;;;;;;82.20;48.95;;;6.20;99.90;;;;;;5092648;28;20071;-81
2022/03/23 06:47:36;;;;;;;87.45;48.65;;;6.30;99.90;;;;;;5092932;28;20471;-81
2022/03/23 06:50:02;;;;;;;82.68;48.33;;;6.40;99.90;;;;;;5090212;28;20032;-81
2022/03/23 06:52:28;;;;;;;85.55;48.85;;;6.50;99.90;;;;;;5084907;28;20044;-82
2022/03/23 06:54:53;;;;;;;79.82;49.47;;;6.70;99.90;;;;;;5088256;28;20532;-82
2022/03/23 06:57:19;;;;;;;74.68;45.67;;;7.60;99.90;;;;;;5095050;28;20043;-82
2022/03/23 06:59:45;;;;;;;77.95;45.90;;;7.50;99.90;;;;;;5092605;28;20040;-82
2022/03/23 07:02:11;;;;;;;73.13;43.30;;;8.00;99.90;;;;;;5095780;28;20466;-79
2022/03/23 07:04:37;;;;;;;69.75;42.85;;;8.30;99.90;;;;;;5094732;28;20101;-81
2022/03/23 07:07:03;;;;;;;72.32;43.53;;;8.60;99.90;;;;;;5092892;28;20040;-81
2022/03/23 07:09:32;;;;;;;68.30;42.80;;;8.80;99.90;;;;;;5087890;28;20040;-81
2022/03/23 07:12:05;;;;;;;63.25;41.58;;;8.90;99.90;;;;;;5092432;28;20040;-80
2022/03/23 07:14:32;;;;;;;66.57;40.65;;;9.00;99.90;;;;;;5091323;28;20054;-81
2022/03/23 07:16:58;;;;;;;69.10;41.63;;;9.10;99.90;;;;;;5086382;28;20059;-82
2022/03/23 07:19:24;;;;;;;62.70;40.05;;;9.30;99.90;;;;;;5086033;28;20062;-81
2022/03/23 07:21:51;;;;;;;66.00;40.58;;;9.30;99.90;;;;;;5092594;28;20051;-81
2022/03/23 07:24:17;;;;;;;65.25;40.17;;;9.40;99.90;;;;;;5093556;28;20051;-82
2022/03/23 07:26:43;;;;;;;68.40;40.53;;;9.40;99.90;;;;;;5093218;28;20106;-81
2022/03/23 07:29:09;;;;;;;68.88;39.85;;;9.40;99.90;;;;;;5092527;28;20075;-82
2022/03/23 07:31:35;;;;;;;65.82;38.60;;;9.50;99.90;;;;;;5083773;28;20068;-82
2022/03/23 07:34:02;;;;;;;63.90;37.25;;;9.60;99.90;;;;;;5090485;28;20056;-81
2022/03/23 07:36:29;;;;;;;58.42;37.97;;;9.60;99.90;;;;;;5090864;28;20533;-81
2022/03/23 07:38:54;;;;;;;60.50;37.53;;;10.10;99.90;;;;;;5091731;28;20116;-81
2022/03/23 07:41:20;;;;;;;61.13;37.00;;;9.70;99.90;;;;;;5073291;28;20094;-81
2022/03/23 07:43:46;;;;;;;56.83;35.65;;;9.90;99.90;;;;;;5091419;28;20040;-81
2022/03/23 07:46:12;;;;;;;56.13;35.33;;;9.90;99.90;;;;;;5094991;28;20402;-82
2022/03/23 07:48:38;;;;;;;59.28;37.83;;;10.10;99.90;;;;;;5093691;28;20047;-82
2022/03/23 07:51:04;;;;;;;57.63;35.47;;;10.20;99.90;;;;;;5094620;28;20040;-80
2022/03/23 07:53:30;;;;;;;51.65;34.08;;;10.30;99.90;;;;;;5094839;28;20105;-81
2022/03/23 07:55:55;;;;;;;54.42;34.22;;;10.50;99.90;;;;;;5095689;28;20046;-81
2022/03/23 07:58:22;;;;;;;50.67;32.25;;;10.60;99.90;;;;;;5084879;28;20044;-81
2022/03/23 08:00:48;;;;;;;60.85;33.53;;;10.70;99.90;;;;;;5089758;28;20081;-81
2022/03/23 08:03:13;;;;;;;53.65;33.17;;;10.90;99.90;;;;;;5095829;28;20039;-82
2022/03/23 08:05:40;;;;;;;63.00;33.60;;;11.00;99.90;;;;;;5085830;28;20109;-81
2022/03/23 08:08:09;;;;;;;60.78;32.60;;;11.10;99.90;;;;;;5089494;28;20491;-82
2022/03/23 08:10:36;;;;;;;53.72;33.50;;;11.20;99.90;;;;;;5075846;28;20052;-83
2022/03/23 08:13:02;;;;;;;58.35;31.48;;;11.40;99.90;;;;;;5072588;28;20503;-82
2022/03/23 08:15:31;;;;;;;49.97;32.55;;;11.60;99.90;;;;;;5090404;28;20044;-83
2022/03/23 08:17:58;;;;;;;54.83;31.95;;;11.70;99.90;;;;;;5093029;28;20459;-81
2022/03/23 08:20:32;;;;;;;52.83;33.50;;;11.90;99.90;;;;;;5090466;28;20052;-81
2022/03/23 08:22:59;;;;;;;53.15;33.72;;;11.90;99.90;;;;;;5091054;28;20072;-80
2022/03/23 08:25:25;;;;;;;49.03;31.70;;;12.10;99.90;;;;;;5086234;28;20495;-80
2022/03/23 08:27:51;;;;;;;48.00;29.63;;;12.20;99.90;;;;;;5091141;28;20139;-82
2022/03/23 08:30:17;;;;;;;46.25;29.25;;;12.40;99.90;;;;;;5076935;28;20075;-82
2022/03/23 08:32:43;;;;;;;47.10;29.80;;;12.50;99.90;;;;;;5086392;28;20032;-81
2022/03/23 08:35:09;;;;;;;48.08;29.90;;;12.50;99.90;;;;;;5089904;28;20491;-81
2022/03/23 08:37:34;;;;;;;46.08;29.63;;;12.80;99.90;;;;;;5089000;28;20515;-81
2022/03/23 08:40:00;;;;;;;46.85;28.70;;;12.90;99.90;;;;;;5090485;28;20130;-79
2022/03/23 08:42:26;;;;;;;43.42;27.88;;;13.10;99.90;;;;;;5089977;28;20178;-81
2022/03/23 08:44:52;;;;;;;47.97;28.75;;;13.20;99.90;;;;;;5089217;28;20040;-82
2022/03/23 08:47:17;;;;;;;54.92;26.88;;;13.40;99.90;;;;;;5088225;28;20040;-82
2022/03/23 08:49:44;;;;;;;45.10;28.33;;;13.70;99.90;;;;;;5089475;28;20387;-82
2022/03/23 08:52:09;;;;;;;46.47;27.33;;;14.30;99.90;;;;;;5088588;28;20080;-81
2022/03/23 08:54:35;;;;;;;44.85;27.50;;;13.90;99.90;;;;;;5113115;28;20084;-82
2022/03/23 08:57:01;;;;;;;42.88;27.23;;;14.10;99.90;;;;;;5085611;28;20040;-82
2022/03/23 08:59:27;;;;;;;43.08;26.70;;;14.20;99.80;;;;;;5088621;28;20063;-80
2022/03/23 09:01:53;;;;;;;42.20;25.88;;;14.30;99.40;;;;;;5089287;28;20044;-82
2022/03/23 09:04:18;;;;;;;42.10;26.50;;;14.40;98.30;;;;;;5086745;28;20039;-82
2022/03/23 09:06:44;;;;;;;45.35;26.33;;;14.50;98.10;;;;;;5089318;28;20044;-82
2022/03/23 09:09:10;;;;;;;42.15;26.33;;;14.60;97.10;;;;;;5090089;28;20051;-81
2022/03/23 09:11:35;;;;;;;43.00;27.48;;;14.70;96.00;;;;;;5089732;28;20499;-81
2022/03/23 09:14:01;;;;;;;45.90;26.00;;;14.80;95.40;;;;;;5085632;28;20372;-81
2022/03/23 09:16:27;;;;;;;44.78;26.10;;;15.00;95.00;;;;;;5089669;28;20058;-80
2022/03/23 09:18:53;;;;;;;42.55;26.33;;;15.10;94.60;;;;;;5089689;28;20484;-80
2022/03/23 09:21:21;;;;;;;44.10;26.15;;;15.30;94.40;;;;;;5096426;28;20096;-82
2022/03/23 09:23:47;;;;;;;41.00;24.50;;;15.50;94.00;;;;;;5097985;28;20114;-81
2022/03/23 09:26:13;;;;;;;40.60;24.13;;;15.70;92.90;;;;;;5092073;28;20537;-83
2022/03/23 09:28:41;;;;;;;38.10;24.73;;;15.90;92.40;;;;;;5096060;28;20048;-81
2022/03/23 09:31:07;;;;;;;34.40;23.52;;;15.90;90.70;;;;;;5104916;28;20075;-81
2022/03/23 09:33:33;;;;;;;37.97;25.05;;;16.30;88.30;;;;;;5100075;28;20052;-80
2022/03/23 09:35:58;;;;;;;32.85;23.20;;;16.20;88.10;;;;;;5107917;28;20048;-80
2022/03/23 09:38:26;;;;;;;36.80;21.50;;;16.40;85.40;;;;;;5105591;28;20051;-81
2022/03/23 09:40:52;;;;;;;31.92;22.40;;;16.50;82.20;;;;;;5095569;28;20097;-80
2022/03/23 09:43:23;;;;;;;32.83;20.92;;;16.60;80.50;;;;;;5104992;28;20044;-82
2022/03/23 09:45:50;;;;;;;31.17;21.38;;;17.20;79.10;;;;;;5092088;28;20106;-81
2022/03/23 09:48:20;;;;;;;32.80;20.88;;;17.30;71.50;;;;;;5100760;28;20101;-83
2022/03/23 09:50:50;;;;;;;36.90;20.95;;;17.20;76.30;;;;;;5098136;28;20615;-83
2022/03/23 09:53:16;;;;;;;29.40;21.10;;;17.40;74.70;;;;;;5100717;28;20036;-82
2022/03/23 09:55:43;;;;;;;26.45;20.08;;;17.60;74.20;;;;;;5097205;28;20161;-81
2022/03/23 09:58:09;;;;;;;28.90;20.60;;;17.60;72.10;;;;;;5091966;28;20059;-82
2022/03/23 10:00:44;;;;;;;29.17;20.33;;;17.70;71.20;;;;;;5095300;28;20080;-81
2022/03/23 10:03:13;;;;;;;26.25;20.00;;;17.90;70.00;;;;;;5122543;27;20056;-83
2022/03/23 10:06:12;;;;;;;26.95;20.20;;;18.00;68.20;;;;;;5093282;28;20051;-84
2022/03/23 10:08:55;;;;;;;28.00;19.88;;;18.20;62.70;;;;;;5084408;28;20415;-81
2022/03/23 10:11:39;;;;;;;24.75;19.15;;;18.10;63.60;;;;;;5095226;28;20131;-81
2022/03/23 10:14:30;;;;;;;26.98;18.75;;;18.40;61.50;;;;;;5086204;28;20551;-80
2022/03/23 10:17:18;;;;;;;25.52;18.90;;;18.50;59.50;;;;;;5088094;28;20059;-81
2022/03/23 10:19:44;;;;;;;26.45;18.80;;;18.70;60.70;;;;;;5075197;28;20059;-81
2022/03/23 10:22:12;;;;;;;30.20;18.80;;;18.90;60.10;;;;;;5092532;28;20048;-82
2022/03/23 10:24:38;;;;;;;28.90;19.27;;;19.10;59.40;;;;;;5088013;28;20118;-82
2022/03/23 10:27:10;;;;;;;27.17;19.67;;;19.20;60.00;;;;;;5092682;28;20781;-83
2022/03/23 10:29:47;;;;;;;23.88;18.10;;;19.30;56.40;;;;;;5090062;28;20044;-81
2022/03/23 10:32:14;;;;;;;23.23;17.90;;;19.50;56.90;;;;;;5089585;28;20044;-81
2022/03/23 10:34:49;;;;;;;28.85;17.45;;;19.50;57.00;;;;;;5095554;28;20047;-82
2022/03/23 10:37:30;;;;;;;21.67;16.55;;;19.90;57.20;;;;;;5095671;28;20051;-81
2022/03/23 10:40:00;;;;;;;23.58;16.45;;;20.00;53.20;;;;;;5099861;28;20080;-80
2022/03/23 10:42:28;;;;;;;23.35;15.68;;;20.20;53.10;;;;;;5095026;28;20127;-81
2022/03/23 10:45:08;;;;;;;25.60;16.58;;;20.40;53.90;;;;;;5094592;28;20031;-80
2022/03/23 10:47:35;;;;;;;22.17;15.48;;;20.60;49.10;;;;;;5092337;28;20072;-82
2022/03/23 10:50:23;;;;;;;21.05;15.95;;;20.60;51.20;;;;;;5093554;28;20090;-82
2022/03/23 10:52:57;;;;;;;21.08;15.75;;;20.90;47.20;;;;;;5095092;28;20089;-82
2022/03/23 10:55:28;;;;;;;26.45;16.15;;;21.00;49.80;;;;;;5089736;28;20125;-81
2022/03/23 10:58:17;;;;;;;20.48;15.20;;;20.80;49.10;;;;;;5102729;28;20048;-81
2022/03/23 11:00:43;;;;;;;23.70;15.43;;;21.00;49.40;;;;;;5094344;28;20036;-82
2022/03/23 11:03:09;;;;;;;20.73;15.18;;;21.20;47.90;;;;;;5095768;28;20036;-82
2022/03/23 11:05:37;;;;;;;20.92;13.02;;;21.20;47.00;;;;;;5084293;28;20040;-79
2022/03/23 11:08:09;;;;;;;22.15;13.68;;;21.30;45.80;;;;;;5093342;28;20028;-80
2022/03/23 11:16:10;;;;;;;28.25;13.23;;;21.20;44.50;;;;;;5091732;28;20055;-82
2022/03/23 11:18:36;;;;;;;19.23;12.98;;;21.30;44.90;;;;;;5091422;28;20051;-81
2022/03/23 11:21:02;;;;;;;22.10;12.20;;;21.50;44.10;;;;;;5092419;28;20032;-84
2022/03/23 11:23:35;;;;;;;20.13;11.73;;;21.50;42.50;;;;;;5091957;28;20056;-82
2022/03/23 11:26:02;;;;;;;21.60;11.43;;;21.40;42.80;;;;;;5091498;28;20063;-82
2022/03/23 11:28:31;;;;;;;20.70;11.65;;;21.50;43.30;;;;;;5087788;28;20036;-81
2022/03/23 11:30:57;;;;;;;21.58;11.63;;;21.70;42.30;;;;;;5086865;28;20372;-83
2022/03/23 11:33:25;;;;;;;19.75;11.18;;;22.00;42.40;;;;;;5092743;28;20040;-82
2022/03/23 11:35:53;;;;;;;23.80;10.98;;;22.00;42.60;;;;;;5089379;28;20514;-82
2022/03/23 11:38:25;;;;;;;22.55;11.05;;;22.20;42.90;;;;;;5089829;28;20211;-81
2022/03/23 11:40:53;;;;;;;25.42;11.40;;;22.30;42.50;;;;;;5088852;28;20063;-81
2022/03/23 11:43:22;;;;;;;21.33;10.57;;;22.60;42.50;;;;;;5086823;28;20094;-81
2022/03/23 11:45:49;;;;;;;21.42;10.95;;;22.80;41.80;;;;;;5093469;28;20047;-81
2022/03/23 11:48:18;;;;;;;;;;;22.70;41.30;;;;;;5088795;28;20134;-81
2022/03/23 11:50:52;;;;;;;25.77;10.90;;;22.90;40.80;;;;;;5095942;28;19920;-82
2022/03/23 11:53:51;;;;;;;26.17;13.52;;;23.00;41.40;;;;;;5096384;28;20100;-81
2022/03/23 11:56:40;;;;;;;22.50;11.65;;;23.30;40.90;;;;;;5095346;28;20040;-83
2022/03/23 11:59:21;;;;;;;24.20;10.80;;;23.30;40.70;;;;;;5100963;28;20052;-81
2022/03/23 12:01:47;;;;;;;19.52;9.73;;;23.40;40.60;;;;;;5097758;28;20097;-82
2022/03/23 12:04:25;;;;;;;19.35;10.43;;;23.40;40.70;;;;;;5098944;28;20375;-82
2022/03/23 12:07:00;;;;;;;22.20;10.50;;;23.60;40.20;;;;;;5096903;28;20160;-81
2022/03/23 12:09:37;;;;;;;35.80;11.80;;;23.80;39.40;;;;;;5098512;28;20043;-80
2022/03/23 12:12:22;;;;;;;29.30;11.07;;;23.90;39.60;;;;;;5092177;28;20513;-81
2022/03/23 12:14:48;;;;;;;21.08;12.10;;;24.20;40.20;;;;;;5098961;28;20560;-81
2022/03/23 12:17:19;;;;;;;23.15;13.27;;;24.30;39.30;;;;;;5091341;28;20056;-81
2022/03/23 12:19:56;;;;;;;28.70;13.45;;;24.00;39.90;;;;;;5101421;28;20044;-81
2022/03/23 12:22:33;;;;;;;27.83;13.33;;;23.70;39.60;;;;;;5103102;28;20044;-81
2022/03/23 12:25:17;;;;;;;;;;;23.80;40.00;;;;;;5098794;28;20810;-82
2022/03/23 12:27:45;;;;;;;29.75;12.43;;;23.70;38.80;;;;;;5103169;28;19969;-83
2022/03/23 12:30:22;;;;;;;28.85;11.70;;;23.80;40.10;;;;;;5102085;28;20067;-81
2022/03/23 12:32:47;;;;;;;22.48;10.23;;;23.90;39.00;;;;;;5100281;28;20040;-82
2022/03/23 12:35:14;;;;;;;21.92;8.60;;;23.80;39.30;;;;;;5104671;28;20046;-82
2022/03/23 12:37:42;;;;;;;24.58;8.18;;;24.00;38.40;;;;;;5105243;28;20044;-80
2022/03/23 12:40:13;;;;;;;24.38;8.48;;;24.00;38.50;;;;;;5110189;28;20044;-81
2022/03/23 12:42:44;;;;;;;23.40;9.43;;;23.90;37.90;;;;;;5092682;28;20074;-81
2022/03/23 12:45:18;;;;;;;29.63;9.90;;;23.90;37.20;;;;;;5109074;28;20096;-79
2022/03/23 12:47:59;;;;;;;25.38;7.40;;;23.60;38.20;;;;;;5108931;28;20040;-80
2022/03/23 12:59:25;;;;;;;25.25;6.32;;;23.40;37.90;;;;;;5091485;28;20048;-83
2022/03/23 13:02:10;;;;;;;22.92;8.07;;;23.10;37.90;;;;;;5105519;28;20044;-81